Time;durP1;ratioP1;P1;durP2;ratioP2;P2;SDS_P1;SDS_P2;PMS_P1;PMS_P2;Temp;Humidity;BMP_temperature;BMP_pressure;BME280_temperature;BME280_humidity;BME280_pressure;Samples;Min_cycle;Max_cycle;Signal;HPM_P1;HPM_P2
2024/01/05 08:44:43;;;;;;;14.40;5.53;;;;;;;19.07;58.79;100263.38;5092025;27;20668;-41
2024/01/05 08:47:11;;;;;;;15.98;6.63;;;;;;;19.16;59.11;100262.00;5074409;28;20054;-40
2024/01/05 08:49:39;;;;;;;14.82;5.78;;;;;;;19.19;58.65;100248.56;5092130;28;20032;-41
2024/01/05 08:52:07;;;;;;;16.13;5.88;;;;;;;19.22;58.66;100244.88;5091036;28;20020;-41
2024/01/05 08:54:33;;;;;;;12.32;5.65;;;;;;;19.26;59.06;100241.97;5074631;28;20025;-40
2024/01/05 08:56:58;;;;;;;18.92;5.80;;;;;;;19.29;58.82;100241.81;5091946;28;20024;-41
2024/01/05 08:59:24;;;;;;;20.63;5.57;;;;;;;19.36;59.42;100232.56;5074036;28;20031;-42
2024/01/05 09:01:49;;;;;;;20.85;6.03;;;;;;;19.39;59.50;100243.00;5090864;28;20024;-43
2024/01/05 09:04:15;;;;;;;25.45;5.22;;;;;;;19.41;58.87;100245.56;5091606;28;20021;-41
2024/01/05 09:06:40;;;;;;;17.25;5.55;;;;;;;19.07;56.31;100249.28;5090525;28;20040;-41
2024/01/05 09:09:05;;;;;;;17.85;5.47;;;;;;;18.86;55.96;100240.72;5091621;28;20024;-41
2024/01/05 09:11:31;;;;;;;10.05;5.10;;;;;;;18.67;54.81;100240.88;5090723;28;20024;-40
2024/01/05 09:13:56;;;;;;;9.88;4.40;;;;;;;18.51;54.28;100244.34;5091564;28;20021;-40
2024/01/05 09:16:22;;;;;;;16.73;5.43;;;;;;;18.40;53.81;100241.41;5073933;28;20020;-44
2024/01/05 09:18:50;;;;;;;18.75;4.88;;;;;;;18.36;54.27;100255.75;5090888;28;20040;-40
2024/01/05 09:21:18;;;;;;;8.93;4.75;;;;;;;18.37;53.56;100251.31;5091569;28;20039;-40
2024/01/05 09:23:44;;;;;;;8.80;4.20;;;;;;;18.31;53.31;100250.72;5091577;28;20039;-39
2024/01/05 09:26:15;;;;;;;9.75;4.63;;;;;;;18.27;52.52;100243.88;5091855;28;20028;-41
2024/01/05 09:28:44;;;;;;;10.75;4.07;;;;;;;18.22;52.88;100242.41;5091264;28;20017;-40
2024/01/05 09:31:10;;;;;;;10.32;3.92;;;;;;;18.21;52.73;100238.91;5091264;28;20413;-40
2024/01/05 09:33:35;;;;;;;11.05;4.10;;;;;;;18.21;52.48;100238.91;5092266;28;20442;-41
2024/01/05 09:36:05;;;;;;;6.32;3.85;;;;;;;18.15;52.07;100249.81;5091615;28;20430;-39
2024/01/05 09:38:31;;;;;;;7.88;3.88;;;;;;;18.12;51.92;100242.91;5091389;28;20103;-41
2024/01/05 09:40:56;;;;;;;10.90;4.13;;;;;;;18.10;51.71;100246.56;5092126;28;20395;-40
2024/01/05 09:43:23;;;;;;;7.30;3.88;;;;;;;18.06;51.53;100245.00;5073295;28;20035;-40
2024/01/05 09:45:52;;;;;;;4.35;3.50;;;;;;;18.00;50.64;100242.66;5090170;28;20021;-41
2024/01/05 09:48:21;;;;;;;6.65;3.83;;;;;;;17.98;50.86;100245.41;5090325;28;20463;-40
2024/01/05 09:50:55;;;;;;;6.77;3.93;;;;;;;17.91;50.43;100233.41;5090069;28;20162;-41
2024/01/05 09:53:23;;;;;;;6.85;3.63;;;;;;;17.90;50.87;100237.84;5090222;28;20335;-40
2024/01/05 09:55:51;;;;;;;5.50;3.22;;;;;;;17.87;50.26;100232.75;5078902;28;20056;-41
2024/01/05 09:58:17;;;;;;;7.90;3.55;;;;;;;17.89;50.28;100228.22;5076525;28;20035;-39
2024/01/05 10:00:49;;;;;;;7.63;3.25;;;;;;;17.78;49.24;100230.53;5076584;28;20024;-38
2024/01/05 10:03:24;;;;;;;11.00;4.10;;;;;;;17.72;50.02;100228.19;5076996;28;20024;-39
2024/01/05 10:05:56;;;;;;;10.68;3.40;;;;;;;17.72;50.47;100223.78;5044174;28;20358;-40
2024/01/05 10:08:22;;;;;;;8.32;3.55;;;;;;;18.04;50.87;100218.63;5076495;28;20031;-49
2024/01/05 10:10:48;;;;;;;7.35;3.15;;;;;;;18.29;51.12;100214.69;5076103;28;20337;-51
2024/01/05 10:13:17;;;;;;;6.90;2.65;;;;;;;18.41;51.06;100218.47;5077082;28;20047;-39
2024/01/05 10:15:59;;;;;;;6.30;2.72;;;;;;;18.43;51.40;100208.66;5076986;28;20017;-40
2024/01/05 10:18:25;;;;;;;12.02;3.30;;;;;;;18.48;51.72;100196.00;5075973;28;20029;-38
2024/01/05 10:20:51;;;;;;;9.00;3.08;;;;;;;18.53;51.57;100193.97;5075647;28;20070;-43
2024/01/05 10:23:21;;;;;;;9.60;3.05;;;;;;;18.67;52.81;100199.34;5076366;28;20361;-40
2024/01/05 10:25:47;;;;;;;19.15;3.25;;;;;;;18.76;52.38;100190.94;5075387;28;20031;-51
2024/01/05 10:28:19;;;;;;;20.02;3.50;;;;;;;18.77;52.72;100192.63;5075539;28;20028;-40
2024/01/05 10:30:44;;;;;;;15.27;3.28;;;;;;;18.87;53.21;100194.75;5074125;28;20625;-41
2024/01/05 10:33:16;;;;;;;14.80;3.08;;;;;;;18.90;53.07;100189.31;5076281;28;20567;-41
2024/01/05 10:35:42;;;;;;;14.38;3.13;;;;;;;18.94;53.33;100191.69;5075355;28;20039;-40
2024/01/05 10:38:13;;;;;;;20.75;3.08;;;;;;;18.93;53.70;100183.81;5075691;28;20039;-39
2024/01/05 10:40:39;;;;;;;14.40;3.28;;;;;;;18.88;53.34;100186.72;5076551;28;20032;-38
2024/01/05 10:43:13;;;;;;;15.68;2.90;;;;;;;18.86;53.36;100179.81;5075643;28;20039;-39
2024/01/05 10:45:41;;;;;;;14.23;2.95;;;;;;;18.87;53.41;100173.56;5078753;28;20037;-43
2024/01/05 10:48:08;;;;;;;14.60;2.90;;;;;;;18.91;54.37;100168.00;5055675;28;20419;-39
2024/01/05 10:50:36;;;;;;;10.85;3.25;;;;;;;18.96;54.93;100171.28;5075706;28;20029;-38
2024/01/05 10:53:02;;;;;;;10.82;2.92;;;;;;;18.98;54.87;100163.22;5090714;28;20440;-39
2024/01/05 10:55:31;;;;;;;11.35;3.30;;;;;;;19.00;55.07;100166.63;5079357;28;20032;-40
2024/01/05 10:57:56;;;;;;;16.07;3.60;;;;;;;19.01;55.14;100155.13;5083814;28;20027;-38
2024/01/05 11:00:24;;;;;;;16.10;3.00;;;;;;;19.03;56.06;100155.84;5081198;28;20406;-40
2024/01/05 11:02:51;;;;;;;12.30;3.10;;;;;;;19.07;55.74;100151.25;5086238;28;20031;-38
2024/01/05 11:05:19;;;;;;;15.63;3.45;;;;;;;19.07;56.07;100146.78;5089323;28;20028;-40
2024/01/05 11:07:47;;;;;;;16.40;2.90;;;;;;;19.07;56.21;100130.88;5081435;28;20162;-40
2024/01/05 11:10:35;;;;;;;18.50;3.08;;;;;;;19.07;55.95;100136.19;5065487;28;20028;-40
2024/01/05 11:13:27;;;;;;;12.27;3.30;;;;;;;19.11;56.14;100136.88;5091277;28;20107;-39
2024/01/05 11:16:24;;;;;;;10.65;3.25;;;;;;;19.08;56.25;100115.84;5090945;28;20043;-39
2024/01/05 11:19:04;;;;;;;8.77;2.85;;;;;;;19.12;56.02;100120.03;5066805;28;20036;-39
2024/01/05 11:21:32;;;;;;;9.48;2.90;;;;;;;19.12;56.13;100112.91;5077173;28;20025;-39
2024/01/05 11:23:58;;;;;;;14.48;3.60;;;;;;;19.13;56.06;100114.66;5080161;28;20078;-39
2024/01/05 11:26:42;;;;;;;11.05;2.92;;;;;;;19.11;56.27;100119.19;5068593;28;20075;-40
2024/01/05 11:29:14;;;;;;;8.13;2.85;;;;;;;19.14;56.12;100121.63;5080070;28;20032;-39
2024/01/05 11:31:46;;;;;;;8.85;3.20;;;;;;;19.15;56.09;100118.06;5073954;28;20024;-40
2024/01/05 11:34:40;;;;;;;8.73;2.50;;;;;;;19.14;56.25;100104.88;5091249;28;20051;-39
2024/01/05 11:37:05;;;;;;;10.68;2.90;;;;;;;19.17;56.15;100100.28;5082904;28;20034;-39
2024/01/05 11:39:47;;;;;;;9.60;3.13;;;;;;;19.16;56.02;100090.59;5093891;28;20027;-38
2024/01/05 11:42:25;;;;;;;11.13;2.90;;;;;;;19.15;56.24;100086.25;5092999;28;20077;-38
2024/01/05 11:44:53;;;;;;;11.40;2.78;;;;;;;19.18;55.93;100083.41;5091867;28;20518;-39
2024/01/05 11:47:47;;;;;;;10.70;2.60;;;;;;;19.16;56.15;100077.34;5091170;28;20028;-40
2024/01/05 11:50:34;;;;;;;5.38;2.72;;;;;;;19.16;56.03;100064.09;5080911;28;20463;-42
2024/01/05 11:53:15;;;;;;;9.63;2.80;;;;;;;19.17;56.21;100057.88;5085374;28;20024;-39
2024/01/05 11:55:52;;;;;;;8.73;2.70;;;;;;;19.17;56.00;100047.28;5082054;28;20426;-39
2024/01/05 11:58:37;;;;;;;14.38;3.47;;;;;;;19.20;56.18;100051.53;5091062;28;20114;-38
2024/01/05 12:01:04;;;;;;;6.45;2.88;;;;;;;19.21;55.91;100047.09;5079438;28;20028;-40
2024/01/05 12:03:30;;;;;;;7.20;2.30;;;;;;;19.22;56.06;100048.78;5089029;28;20055;-39
2024/01/05 12:06:13;;;;;;;4.45;2.13;;;;;;;19.18;56.03;100056.06;5081458;28;20435;-39
2024/01/05 12:08:39;;;;;;;7.32;2.80;;;;;;;19.22;56.04;100060.22;5089163;28;20065;-38
2024/01/05 12:11:09;;;;;;;7.30;2.50;;;;;;;19.23;56.00;100063.75;5074608;28;20024;-38
2024/01/05 12:13:35;;;;;;;10.00;2.10;;;;;;;19.22;55.99;100054.06;5085637;28;20035;-38
2024/01/05 12:16:05;;;;;;;10.07;2.70;;;;;;;19.23;56.21;100061.09;5070998;28;20077;-39
2024/01/05 12:18:35;;;;;;;6.93;2.47;;;;;;;19.23;56.07;100067.25;5085298;28;20024;-40
2024/01/05 12:21:01;;;;;;;5.03;1.88;;;;;;;19.23;55.94;100072.53;5093258;28;20040;-38
2024/01/05 12:23:27;;;;;;;4.47;2.80;;;;;;;19.25;56.24;100077.78;5084581;28;20032;-37
2024/01/05 12:26:06;;;;;;;6.72;3.70;;;;;;;19.25;55.96;100075.13;5075983;28;20032;-38
2024/01/05 12:28:41;;;;;;;4.50;2.00;;;;;;;19.25;56.03;100069.81;5084423;28;20103;-37
2024/01/05 12:31:13;;;;;;;8.00;2.50;;;;;;;19.26;56.19;100055.59;5074783;28;20020;-37
2024/01/05 12:33:40;;;;;;;5.55;1.90;;;;;;;19.26;56.57;100051.16;5075192;28;20024;-37
2024/01/05 12:36:09;;;;;;;6.85;2.42;;;;;;;19.28;56.20;100053.72;5078433;28;20077;-38
2024/01/05 12:38:37;;;;;;;6.53;2.42;;;;;;;19.27;56.02;100041.41;5092910;28;20024;-40
2024/01/05 12:41:15;;;;;;;5.22;2.10;;;;;;;19.26;56.08;100045.00;5060151;28;20472;-38
2024/01/05 12:43:46;;;;;;;7.28;2.85;;;;;;;19.28;56.10;100043.13;5084591;28;20118;-38
2024/01/05 12:46:15;;;;;;;11.07;2.30;;;;;;;19.29;56.41;100052.75;5070239;28;20085;-39
2024/01/05 12:48:40;;;;;;;7.28;3.55;;;;;;;19.30;56.21;100052.69;5084078;28;20020;-38
2024/01/05 12:51:11;;;;;;;7.22;3.33;;;;;;;19.32;56.95;100045.50;5081936;28;20043;-40
2024/01/05 12:53:36;;;;;;;5.90;3.17;;;;;;;19.35;56.69;100040.00;5077750;28;20031;-39
2024/01/05 12:56:20;;;;;;;11.95;4.60;;;;;;;19.34;56.82;100045.41;5077193;28;20020;-38
2024/01/05 12:58:49;;;;;;;9.18;4.40;;;;;;;19.37;56.78;100042.56;5084913;28;20070;-38
2024/01/05 13:01:18;;;;;;;11.70;6.00;;;;;;;19.37;56.89;100053.16;5086759;28;20028;-39
2024/01/05 13:03:51;;;;;;;12.55;5.15;;;;;;;19.36;57.13;100062.03;5081946;28;20074;-37
2024/01/05 13:06:17;;;;;;;12.40;4.88;;;;;;;19.37;57.64;100069.06;5073948;28;20054;-39
2024/01/05 13:08:42;;;;;;;9.15;4.53;;;;;;;19.43;57.05;100073.97;5079485;28;20433;-38
2024/01/05 13:11:10;;;;;;;10.85;3.95;;;;;;;19.42;57.00;100072.28;5079002;28;20028;-37
2024/01/05 13:13:36;;;;;;;10.23;4.90;;;;;;;19.42;57.08;100071.44;5069560;28;20027;-39
2024/01/05 13:16:01;;;;;;;8.15;4.28;;;;;;;19.41;57.04;100070.59;5088819;28;20032;-41
2024/01/05 13:18:28;;;;;;;9.05;4.18;;;;;;;19.40;57.09;100068.88;5081110;28;20025;-45
2024/01/05 13:20:53;;;;;;;10.23;4.13;;;;;;;19.41;56.93;100060.00;5079996;28;20108;-38
2024/01/05 13:23:18;;;;;;;11.13;3.97;;;;;;;19.38;57.10;100058.34;5075946;28;20029;-39
2024/01/05 13:25:44;;;;;;;6.93;4.00;;;;;;;19.39;56.87;100057.44;5083606;28;20028;-39
2024/01/05 13:28:09;;;;;;;9.23;3.58;;;;;;;19.38;56.82;100060.16;5081736;28;20518;-38
2024/01/05 13:30:35;;;;;;;12.95;3.83;;;;;;;19.38;56.93;100060.16;5076180;28;20029;-40
2024/01/05 13:33:00;;;;;;;10.23;4.05;;;;;;;19.39;56.75;100056.56;5087362;28;20024;-39
2024/01/05 13:35:26;;;;;;;5.07;3.05;;;;;;;19.38;56.72;100054.84;5080297;28;20117;-40
2024/01/05 13:37:54;;;;;;;10.30;3.35;;;;;;;19.39;56.77;100062.72;5083961;28;20070;-40
2024/01/05 13:40:19;;;;;;;9.85;3.63;;;;;;;19.39;56.83;100060.06;5077042;28;20031;-38
2024/01/05 13:42:44;;;;;;;9.85;3.53;;;;;;;19.41;57.29;100046.75;5080987;28;20438;-39
2024/01/05 13:45:10;;;;;;;6.13;3.00;;;;;;;19.43;57.10;100038.66;5077104;28;20062;-40
2024/01/05 13:47:36;;;;;;;6.57;3.42;;;;;;;19.41;56.82;100052.03;5076726;28;20327;-39
2024/01/05 13:50:07;;;;;;;5.97;3.17;;;;;;;19.40;56.91;100047.66;5075738;28;20032;-40
2024/01/05 13:52:32;;;;;;;7.13;2.88;;;;;;;19.40;56.62;100047.66;5084193;28;20102;-40
2024/01/05 13:55:00;;;;;;;7.40;3.50;;;;;;;19.38;56.90;100046.91;5083490;28;20028;-39
2024/01/05 13:57:25;;;;;;;5.70;3.30;;;;;;;19.36;56.79;100031.13;5088814;28;20118;-39
2024/01/05 13:59:53;;;;;;;6.45;3.05;;;;;;;19.40;56.90;100032.59;5086174;28;20626;-40
2024/01/05 14:02:19;;;;;;;6.88;3.38;;;;;;;19.38;56.95;100036.31;5070350;28;20039;-40
2024/01/05 14:04:48;;;;;;;6.45;2.72;;;;;;;19.38;56.81;100041.59;5086651;28;20044;-39
2024/01/05 14:07:14;;;;;;;4.45;2.70;;;;;;;19.37;56.71;100037.25;5087019;28;20036;-41
2024/01/05 14:09:42;;;;;;;6.03;2.95;;;;;;;19.36;56.46;100036.41;5083660;28;20024;-42
2024/01/05 14:12:11;;;;;;;7.25;2.70;;;;;;;19.35;56.62;100044.44;5091823;28;20027;-41
2024/01/05 14:14:37;;;;;;;5.38;2.83;;;;;;;19.34;56.52;100033.00;5076271;28;20020;-40
2024/01/05 14:17:04;;;;;;;4.28;2.90;;;;;;;19.35;56.53;100033.84;5087867;28;20028;-41
2024/01/05 14:19:30;;;;;;;5.43;2.92;;;;;;;19.37;56.42;100026.66;5082580;28;20338;-40
2024/01/05 14:21:58;;;;;;;4.25;2.72;;;;;;;19.38;56.28;100025.69;5094038;28;20031;-39
2024/01/05 14:24:28;;;;;;;5.57;2.90;;;;;;;19.38;56.54;100033.66;5081821;28;20020;-41
2024/01/05 14:26:56;;;;;;;6.15;2.40;;;;;;;19.34;56.66;100042.75;5086717;28;20028;-40
2024/01/05 14:29:22;;;;;;;5.32;3.60;;;;;;;19.08;54.99;100044.31;5076370;28;20149;-39
2024/01/05 14:31:47;;;;;;;6.47;3.50;;;;;;;18.86;54.46;100042.09;5084759;28;20028;-39
2024/01/05 14:34:13;;;;;;;7.70;3.50;;;;;;;18.69;53.60;100037.75;5074111;28;20036;-40
2024/01/05 14:36:40;;;;;;;5.70;4.00;;;;;;;18.58;53.54;100043.66;5089306;28;20103;-40
2024/01/05 14:39:06;;;;;;;7.97;3.95;;;;;;;18.50;52.73;100048.56;5077921;28;20028;-39
2024/01/05 14:41:33;;;;;;;5.25;4.03;;;;;;;18.41;52.74;100052.56;5077163;28;20039;-39
2024/01/05 14:44:01;;;;;;;5.00;3.85;;;;;;;18.35;52.32;100061.72;5084723;28;20066;-39
2024/01/05 14:46:26;;;;;;;5.40;4.18;;;;;;;18.31;52.27;100061.97;5086913;28;20392;-39
2024/01/05 14:48:51;;;;;;;7.93;4.68;;;;;;;18.26;51.45;100050.78;5080122;28;20024;-40
2024/01/05 14:51:19;;;;;;;7.75;3.72;;;;;;;18.21;51.87;100051.03;5082228;28;20020;-39
2024/01/05 14:53:45;;;;;;;6.30;4.20;;;;;;;18.16;51.30;100050.44;5075930;28;20024;-39
2024/01/05 14:56:16;;;;;;;6.57;4.78;;;;;;;18.14;50.89;100049.66;5085331;28;20514;-41
2024/01/05 14:58:42;;;;;;;5.63;4.10;;;;;;;18.07;50.60;100053.59;5081319;28;20352;-39
2024/01/05 15:01:10;;;;;;;4.75;3.97;;;;;;;18.03;50.55;100046.78;5085775;28;20032;-39
2024/01/05 15:03:38;;;;;;;6.03;3.90;;;;;;;18.03;50.47;100041.50;5077447;28;20032;-39
2024/01/05 15:06:10;;;;;;;5.10;3.83;;;;;;;17.98;50.19;100047.03;5078977;28;20024;-40
2024/01/05 15:08:36;;;;;;;5.25;4.32;;;;;;;17.96;50.13;100045.41;5082221;28;20054;-39
2024/01/05 15:11:05;;;;;;;6.60;4.93;;;;;;;17.93;49.79;100052.59;5080909;28;20106;-39
2024/01/05 15:13:33;;;;;;;6.00;4.40;;;;;;;17.91;49.73;100050.94;5079095;28;20020;-39
2024/01/05 15:16:02;;;;;;;6.00;4.70;;;;;;;17.88;49.32;100049.31;5094683;28;20385;-39
2024/01/05 15:18:27;;;;;;;5.65;4.32;;;;;;;17.84;49.39;100045.16;5091039;28;20025;-38
2024/01/05 15:20:55;;;;;;;5.72;5.07;;;;;;;17.83;49.30;100035.50;5079695;28;20031;-39
2024/01/05 15:23:23;;;;;;;6.95;4.72;;;;;;;17.79;48.92;100044.50;5078736;28;20056;-38
2024/01/05 15:25:51;;;;;;;5.80;4.50;;;;;;;17.73;49.22;100050.13;5094498;28;20043;-39
2024/01/05 15:28:16;;;;;;;7.72;5.57;;;;;;;17.72;48.82;100048.41;5086085;28;20059;-39
2024/01/05 15:30:42;;;;;;;13.05;8.63;;;;;;;17.69;48.56;100043.28;5075739;28;20078;-38
2024/01/05 15:33:07;;;;;;;158.10;105.68;;;;;;;17.68;48.51;100042.44;5076176;28;20020;-38
2024/01/05 15:35:37;;;;;;;180.98;116.97;;;;;;;17.66;48.71;100043.47;5091010;28;20031;-38
2024/01/05 15:38:06;;;;;;;209.43;132.10;;;;;;;17.66;48.53;100048.75;5083237;28;20064;-39
2024/01/05 15:40:32;;;;;;;205.73;129.98;;;;;;;17.62;48.17;100047.19;5123390;27;20085;-39
2024/01/05 15:42:59;;;;;;;221.50;136.07;;;;;;;17.61;48.32;100042.88;5076783;28;20115;-39
2024/01/05 15:45:25;;;;;;;249.98;160.52;;;;;;;17.72;48.90;100024.63;5078285;28;20029;-40
2024/01/05 15:47:51;;;;;;;197.07;125.25;;;;;;;18.00;48.86;100015.19;5092309;28;20035;-39
2024/01/05 15:50:16;;;;;;;221.13;140.32;;;;;;;18.16;49.03;100012.56;5094534;28;20440;-39
2024/01/05 15:52:46;;;;;;;208.43;132.82;;;;;;;18.27;48.88;100012.81;5077039;28;20081;-39
2024/01/05 15:55:12;;;;;;;221.48;141.18;;;;;;;18.35;49.24;100010.56;5067160;28;20021;-38
2024/01/05 15:57:42;;;;;;;187.70;120.78;;;;;;;18.41;48.83;100014.66;5081348;28;20107;-39
2024/01/05 16:00:08;;;;;;;;;;;;;;;18.37;49.05;100010.47;5085719;28;20040;-38
2024/01/05 16:02:36;;;;;;;209.40;132.93;;;;;;;18.47;49.21;100023.13;5078878;28;19923;-39
2024/01/05 16:05:01;;;;;;;199.38;131.63;;;;;;;18.51;49.25;100026.41;5082359;28;20032;-39
2024/01/05 16:07:27;;;;;;;196.50;128.45;;;;;;;18.54;49.47;100028.88;5082395;28;20090;-39
2024/01/05 16:09:52;;;;;;;190.35;126.97;;;;;;;18.58;49.45;100026.94;5082170;28;20413;-39
2024/01/05 16:12:20;;;;;;;188.60;123.20;;;;;;;18.60;49.69;100020.59;5110802;27;20027;-39
2024/01/05 16:14:48;;;;;;;187.18;123.38;;;;;;;18.62;49.84;100021.38;5085392;28;20107;-39
2024/01/05 16:17:14;;;;;;;181.23;119.70;;;;;;;18.65;49.55;100013.22;5090527;28;20060;-40
2024/01/05 16:19:42;;;;;;;179.38;119.13;;;;;;;18.67;49.67;100024.59;5081484;28;20093;-39
2024/01/05 16:22:09;;;;;;;178.07;118.32;;;;;;;18.68;49.97;100023.66;5091841;28;20024;-39
2024/01/05 16:24:35;;;;;;;174.50;116.18;;;;;;;18.70;49.79;100032.34;5109911;27;20085;-39
2024/01/05 16:27:05;;;;;;;175.88;113.32;;;;;;;18.72;49.72;100030.47;5077367;28;20036;-40
2024/01/05 16:29:31;;;;;;;165.10;113.13;;;;;;;18.75;50.02;100037.38;5084667;28;20023;-38
2024/01/05 16:31:59;;;;;;;167.73;112.40;;;;;;;18.77;50.07;100032.88;5093390;28;20160;-38
2024/01/05 16:34:26;;;;;;;160.20;109.78;;;;;;;18.79;50.13;100038.09;5084055;28;20024;-39
2024/01/05 16:36:52;;;;;;;160.20;108.93;;;;;;;18.80;50.12;100043.31;5085574;28;20031;-39
2024/01/05 16:39:19;;;;;;;155.60;104.75;;;;;;;18.82;50.10;100046.69;5083679;28;20021;-39
2024/01/05 16:41:48;;;;;;;157.50;106.63;;;;;;;18.84;50.25;100043.97;5073754;28;20020;-40
2024/01/05 16:44:13;;;;;;;153.30;102.63;;;;;;;18.85;50.49;100051.00;5090426;28;20092;-41
2024/01/05 16:46:39;;;;;;;151.65;103.32;;;;;;;18.86;50.43;100047.38;5081953;28;20021;-39
2024/01/05 16:49:07;;;;;;;143.90;98.63;;;;;;;18.87;50.41;100049.06;5080989;28;20563;-39
2024/01/05 16:51:35;;;;;;;146.27;98.65;;;;;;;18.88;50.68;100045.50;5073847;28;20096;-39
2024/01/05 16:54:05;;;;;;;138.52;95.32;;;;;;;18.87;50.73;100044.66;5073983;28;20031;-39
2024/01/05 16:56:32;;;;;;;;;;;;;;;18.83;50.73;100047.56;5091831;28;20520;-39
2024/01/05 16:58:58;;;;;;;140.32;94.82;;;;;;;18.89;50.71;100036.59;5092638;28;19969;-39
2024/01/05 17:01:24;;;;;;;131.77;90.22;;;;;;;18.90;50.67;100038.31;5117095;28;20016;-38
2024/01/05 17:03:57;;;;;;;132.18;91.65;;;;;;;18.92;50.65;100055.81;5086047;28;20039;-39
2024/01/05 17:06:23;;;;;;;132.07;90.45;;;;;;;18.94;50.76;100055.72;5087156;28;20454;-40
2024/01/05 17:08:49;;;;;;;127.60;88.63;;;;;;;18.94;50.93;100055.72;5080929;28;20165;-39
2024/01/05 17:11:15;;;;;;;127.03;86.55;;;;;;;18.94;50.72;100045.13;5090291;28;20082;-39
2024/01/05 17:13:40;;;;;;;126.93;86.07;;;;;;;18.96;51.08;100053.84;5086815;28;20024;-40
2024/01/05 17:16:12;;;;;;;125.15;86.13;;;;;;;18.96;51.39;100054.72;5091625;28;20043;-40
2024/01/05 17:18:39;;;;;;;121.57;82.25;;;;;;;19.01;51.48;100054.44;5076655;28;20043;-40
2024/01/05 17:21:05;;;;;;;119.00;81.30;;;;;;;19.00;51.66;100055.38;5089901;28;20024;-38
2024/01/05 17:23:32;;;;;;;133.00;81.80;;;;;;;19.04;51.91;100056.06;5080374;28;20016;-38
2024/01/05 17:26:03;;;;;;;123.45;81.85;;;;;;;19.09;51.62;100052.16;5088116;28;20151;-39
2024/01/05 17:28:28;;;;;;;120.18;80.32;;;;;;;19.11;51.59;100055.59;5084087;28;20016;-38
2024/01/05 17:30:55;;;;;;;113.60;76.85;;;;;;;19.13;51.80;100051.06;5095585;28;20109;-38
2024/01/05 17:33:25;;;;;;;112.32;77.35;;;;;;;19.14;51.67;100055.41;5089678;28;20096;-48
2024/01/05 17:35:52;;;;;;;113.43;74.22;;;;;;;19.18;52.15;100059.56;5080821;28;20404;-40
2024/01/05 17:38:19;;;;;;;119.28;77.70;;;;;;;19.22;52.02;100065.53;5079982;28;20060;-40
2024/01/05 17:40:48;;;;;;;107.28;70.22;;;;;;;19.24;52.22;100057.50;5086292;28;20020;-40
2024/01/05 17:43:16;;;;;;;103.63;70.97;;;;;;;19.25;51.73;100059.22;5083522;28;20422;-39
2024/01/05 17:45:41;;;;;;;100.20;68.57;;;;;;;19.26;51.69;100055.59;5085096;28;20051;-39
2024/01/05 17:48:09;;;;;;;101.32;67.43;;;;;;;19.24;51.93;100063.63;5088265;28;20737;-51
2024/01/05 17:50:34;;;;;;;99.00;67.93;;;;;;;19.22;52.01;100069.97;5091578;28;20031;-44
2024/01/05 17:53:00;;;;;;;101.10;67.18;;;;;;;19.20;51.87;100083.34;5078791;28;20028;-43
2024/01/05 17:55:25;;;;;;;98.45;66.60;;;;;;;19.22;52.08;100083.22;5077143;28;20028;-41
2024/01/05 17:57:50;;;;;;;97.55;65.53;;;;;;;19.22;51.96;100085.88;5079207;28;20036;-41
2024/01/05 18:00:16;;;;;;;94.80;63.55;;;;;;;19.22;52.11;100080.56;5091193;28;20027;-41
2024/01/05 18:02:44;;;;;;;95.22;63.30;;;;;;;19.22;51.93;100069.97;5085998;28;20329;-40
2024/01/05 18:05:10;;;;;;;90.25;62.05;;;;;;;19.25;52.09;100069.81;5064224;28;20031;-40
2024/01/05 18:07:40;;;;;;;99.43;66.03;;;;;;;19.31;52.43;100069.44;5079271;28;20052;-40
2024/01/05 18:10:06;;;;;;;124.68;66.50;;;;;;;19.34;52.95;100070.13;5080526;28;20058;-40
2024/01/05 18:12:32;;;;;;;119.40;67.50;;;;;;;19.38;53.33;100073.41;5088240;28;20028;-42
2024/01/05 18:14:57;;;;;;;117.30;67.00;;;;;;;19.43;53.25;100073.97;5080490;28;20031;-41
2024/01/05 18:17:22;;;;;;;126.35;66.85;;;;;;;19.46;53.22;100073.81;5083570;28;20404;-40
2024/01/05 18:19:49;;;;;;;118.50;63.90;;;;;;;19.53;54.95;100079.59;5080599;28;20025;-41
2024/01/05 18:22:16;;;;;;;118.20;63.28;;;;;;;19.53;54.14;100069.84;5086461;28;20389;-40
2024/01/05 18:24:41;;;;;;;124.97;68.43;;;;;;;19.50;54.43;100075.34;5083329;28;20070;-40
2024/01/05 18:27:07;;;;;;;119.82;65.30;;;;;;;19.51;54.39;100071.72;5088628;28;20416;-42
2024/01/05 18:29:32;;;;;;;126.43;65.72;;;;;;;19.57;54.76;100074.03;5078748;28;20036;-44
2024/01/05 18:31:58;;;;;;;99.32;51.42;;;;;;;18.95;54.62;100083.94;5079742;28;20027;-40
2024/01/05 18:34:26;;;;;;;89.70;47.97;;;;;;;19.12;53.93;100082.94;5071451;28;20032;-39
2024/01/05 18:36:51;;;;;;;110.60;54.28;;;;;;;19.24;54.21;100070.75;5082110;28;20083;-39
2024/01/05 18:39:19;;;;;;;109.82;55.25;;;;;;;19.31;54.53;100069.44;5075517;28;20447;-39
2024/01/05 18:41:47;;;;;;;118.00;57.38;;;;;;;19.35;55.43;100070.94;5075420;28;20020;-41
2024/01/05 18:44:14;;;;;;;103.55;54.28;;;;;;;19.34;54.61;100074.56;5075895;28;20025;-39
2024/01/05 18:46:42;;;;;;;106.47;56.35;;;;;;;19.41;56.19;100075.91;5067101;28;20326;-37
2024/01/05 18:49:09;;;;;;;95.47;48.53;;;;;;;19.51;55.13;100074.38;5062406;28;20384;-38
2024/01/05 18:51:37;;;;;;;86.78;41.78;;;;;;;19.45;54.03;100082.69;5073850;28;20032;-37
2024/01/05 18:54:03;;;;;;;76.53;41.42;;;;;;;19.44;55.95;100096.91;5069527;28;20437;-40
2024/01/05 18:56:29;;;;;;;82.00;44.42;;;;;;;19.57;56.60;100087.28;5065059;28;20050;-37
2024/01/05 18:58:58;;;;;;;69.18;38.20;;;;;;;19.59;55.11;100085.34;5075911;28;20331;-38
2024/01/05 19:01:23;;;;;;;65.78;36.28;;;;;;;19.59;54.37;100088.00;5075238;28;20095;-37
2024/01/05 19:03:49;;;;;;;69.22;37.80;;;;;;;19.60;55.15;100087.06;5049446;28;20017;-45
2024/01/05 19:06:18;;;;;;;77.80;39.45;;;;;;;19.51;55.25;100084.97;5056218;28;20035;-38
2024/01/05 19:08:46;;;;;;;71.95;37.88;;;;;;;19.59;56.06;100087.16;5063724;28;20078;-38
2024/01/05 19:11:11;;;;;;;65.22;35.65;;;;;;;19.60;54.77;100091.53;5060990;28;20033;-39
2024/01/05 19:13:37;;;;;;;58.05;31.02;;;;;;;19.61;54.79;100093.22;5060787;28;20021;-37
2024/01/05 19:16:03;;;;;;;53.97;32.10;;;;;;;19.61;54.45;100088.78;5074958;28;20023;-41
2024/01/05 19:18:34;;;;;;;55.33;32.25;;;;;;;19.53;53.39;100092.84;5075065;28;20028;-42
2024/01/05 19:21:03;;;;;;;51.00;30.55;;;;;;;19.58;54.61;100094.28;5069402;28;20051;-38
2024/01/05 19:23:31;;;;;;;48.00;28.90;;;;;;;19.27;50.56;100103.22;5042547;28;20102;-41
2024/01/05 19:25:57;;;;;;;20.38;16.75;;;;;;;16.48;46.58;100113.66;5075656;28;20043;-39
2024/01/05 19:28:23;;;;;;;17.77;15.68;;;;;;;15.52;47.29;100114.50;5073546;28;20043;-39
2024/01/05 19:30:48;;;;;;;19.10;15.45;;;;;;;14.92;46.99;100109.13;5073788;28;20021;-41
2024/01/05 19:33:16;;;;;;;19.20;15.45;;;;;;;14.40;46.49;100110.31;5075490;28;20056;-39
2024/01/05 19:35:41;;;;;;;20.05;15.45;;;;;;;14.08;46.99;100115.91;5075351;28;20335;-39
2024/01/05 19:38:07;;;;;;;21.50;17.58;;;;;;;14.02;47.58;100115.28;5056346;28;20449;-39
2024/01/05 19:40:35;;;;;;;20.52;16.35;;;;;;;13.62;47.44;100114.97;5043186;28;20437;-40
2024/01/05 19:43:00;;;;;;;21.48;16.40;;;;;;;13.44;47.64;100118.28;5075166;28;20039;-39
2024/01/05 19:45:28;;;;;;;20.90;16.45;;;;;;;13.34;47.70;100120.34;5088253;28;20027;-41
2024/01/05 19:47:53;;;;;;;25.38;17.15;;;;;;;13.24;47.60;100119.75;5089607;28;20027;-40
2024/01/05 19:50:18;;;;;;;23.45;17.27;;;;;;;13.00;46.97;100115.34;5059449;28;20015;-40
2024/01/05 19:52:46;;;;;;;23.70;17.50;;;;;;;12.88;47.23;100112.22;5095319;28;20031;-40
2024/01/05 19:55:13;;;;;;;24.17;16.50;;;;;;;12.72;47.29;100121.50;5055653;28;20021;-40
2024/01/05 19:57:41;;;;;;;21.27;15.15;;;;;;;13.24;47.48;100125.00;5061180;28;20028;-42
2024/01/05 20:00:07;;;;;;;26.60;15.55;;;;;;;14.56;47.51;100112.34;5074424;28;20085;-42
2024/01/05 20:02:34;;;;;;;21.92;14.15;;;;;;;15.34;47.20;100097.69;5066615;28;20583;-41